Rubin Power — 3FNG6 — position and weather

sailwx.info

Track history (hours):
 
Tides and Currents Weather Stations Pressure Air Temp Water Temp Dewpoint Dewpoint Depression Visibility Wind Speed Wind Dir Waves Ship Positions

Rubin Power

Last reported at 2014-Jul-16 13:13 UTC. Time now 2014-Jul-22 11:23 UTC.
Position N 31°23' E 032°20'.

Length 218.7 m; beam 32.2 m.

Type: Cargo ship. MMSI: 356808000.

Date/timePositionNaut miles runAvg speedWind from/ knotsBaromVisibWave heightAir tempDewpointWater temp
2014-Jul-16 13:13N 31°23' E 032°20'0 0.0
2014-Jul-16 12:28N 31°23' E 032°20'0 0.0
2014-Jul-16 11:28N 31°23' E 032°20'37 4.6
2014-Jul-16 03:17N 31°51' E 031°51'75 6.9
2014-Jul-15 16:21N 32°46' E 030°51'6 7.1
2014-Jul-15 15:32N 32°51' E 030°46'10 7.3
2014-Jul-15 14:08N 32°58' E 030°38'32612.3
2014-Jul-14 11:30N 37°01' E 026°12'1212.5
2014-Jul-14 10:33N 37°11' E 026°05'1212.1
2014-Jul-14 09:33N 37°22' E 025°57'1312.0
2014-Jul-14 08:26N 37°34' E 025°50'2512.6
2014-Jul-14 06:28N 37°57' E 025°39'1612.8
2014-Jul-14 05:13N 38°12' E 025°31'2412.2
2014-Jul-14 03:17N 38°35' E 025°23'7412.7
2014-Jul-13 21:24N 39°47' E 025°46'1213.2
2014-Jul-13 20:30N 39°57' E 025°54'1111.9
2014-Jul-13 19:33N 40°01' E 026°08'  
2014-Jul-11 00:25N 46°35' E 031°14'0 0.0
2014-Jul-10 23:31N 46°35' E 031°14'0 0.0
2014-Jul-10 22:31N 46°35' E 031°14'0 0.0
2014-Jul-10 21:25N 46°35' E 031°14'0 0.0
2014-Jul-10 20:25N 46°35' E 031°14'0 0.0
2014-Jul-10 19:31N 46°35' E 031°14'0 0.0
2014-Jul-10 18:31N 46°35' E 031°14'0 0.0
2014-Jul-10 05:25N 46°35' E 031°14'0 0.0
2014-Jul-10 03:28N 46°35' E 031°14'0 0.1
2014-Jul-10 02:31N 46°35' E 031°14'0 0.0
2014-Jul-10 01:31N 46°35' E 031°14'0 0.0
2014-Jul-10 00:31N 46°35' E 031°14'0 0.0
2014-Jul-09 23:22N 46°35' E 031°14'0 0.0
2014-Jul-09 22:31N 46°35' E 031°14'0 0.0
2014-Jul-09 21:31N 46°35' E 031°14'0 0.0
2014-Jul-09 20:31N 46°35' E 031°14'0 0.0
2014-Jul-09 19:31N 46°35' E 031°14'0 0.0
2014-Jul-09 18:25N 46°35' E 031°14'0 0.0
2014-Jul-09 03:31N 46°35' E 031°14'0 0.0
2014-Jul-08 01:25N 46°34' E 031°14'0 0.0
2014-Jul-07 23:07N 46°34' E 031°14'0 0.0
2014-Jul-07 01:30N 46°34' E 031°14'  
Track history (hours):
 
Tides and Currents Weather Stations Pressure Air Temp Water Temp Dewpoint Dewpoint Depression Visibility Wind Speed Wind Dir Waves Ship Positions

Rubin Power

Last reported at 2014-Jul-16 13:13 UTC. Time now 2014-Jul-22 11:23 UTC.
Position N 31°23' E 032°20'.

Length 218.7 m; beam 32.2 m.

Type: Cargo ship. MMSI: 356808000.

Date/timePositionNaut miles runAvg speedWind from/ knotsBaromVisibWave heightAir tempDewpointWater temp
2014-Jul-16 13:13N 31°23' E 032°20'0 0.0
2014-Jul-16 12:28N 31°23' E 032°20'0 0.0
2014-Jul-16 11:28N 31°23' E 032°20'37 4.6
2014-Jul-16 03:17N 31°51' E 031°51'75 6.9
2014-Jul-15 16:21N 32°46' E 030°51'6 7.1
2014-Jul-15 15:32N 32°51' E 030°46'10 7.3
2014-Jul-15 14:08N 32°58' E 030°38'32612.3
2014-Jul-14 11:30N 37°01' E 026°12'1212.5
2014-Jul-14 10:33N 37°11' E 026°05'1212.1
2014-Jul-14 09:33N 37°22' E 025°57'1312.0
2014-Jul-14 08:26N 37°34' E 025°50'2512.6
2014-Jul-14 06:28N 37°57' E 025°39'1612.8
2014-Jul-14 05:13N 38°12' E 025°31'2412.2
2014-Jul-14 03:17N 38°35' E 025°23'7412.7
2014-Jul-13 21:24N 39°47' E 025°46'1213.2
2014-Jul-13 20:30N 39°57' E 025°54'1111.9
2014-Jul-13 19:33N 40°01' E 026°08'  
2014-Jul-11 00:25N 46°35' E 031°14'0 0.0
2014-Jul-10 23:31N 46°35' E 031°14'0 0.0
2014-Jul-10 22:31N 46°35' E 031°14'0 0.0
2014-Jul-10 21:25N 46°35' E 031°14'0 0.0
2014-Jul-10 20:25N 46°35' E 031°14'0 0.0
2014-Jul-10 19:31N 46°35' E 031°14'0 0.0
2014-Jul-10 18:31N 46°35' E 031°14'0 0.0
2014-Jul-10 05:25N 46°35' E 031°14'0 0.0
2014-Jul-10 03:28N 46°35' E 031°14'0 0.1
2014-Jul-10 02:31N 46°35' E 031°14'0 0.0
2014-Jul-10 01:31N 46°35' E 031°14'0 0.0
2014-Jul-10 00:31N 46°35' E 031°14'0 0.0
2014-Jul-09 23:22N 46°35' E 031°14'0 0.0
2014-Jul-09 22:31N 46°35' E 031°14'0 0.0
2014-Jul-09 21:31N 46°35' E 031°14'0 0.0
2014-Jul-09 20:31N 46°35' E 031°14'0 0.0
2014-Jul-09 19:31N 46°35' E 031°14'0 0.0
2014-Jul-09 18:25N 46°35' E 031°14'0 0.0
2014-Jul-09 03:31N 46°35' E 031°14'0 0.0
2014-Jul-08 01:25N 46°34' E 031°14'0 0.0
2014-Jul-07 23:07N 46°34' E 031°14'0 0.0
2014-Jul-07 01:30N 46°34' E 031°14'  

Dump ship's entire track history